Time;durP1;ratioP1;P1;durP2;ratioP2;P2;SDS_P1;SDS_P2;PMS_P1;PMS_P2;Temp;Humidity;BMP_temperature;BMP_pressure;BME280_temperature;BME280_humidity;BME280_pressure;Samples;Min_cycle;Max_cycle;Signal;HPM_P1;HPM_P2
2023/03/20 00:00:12;;;;;;;18.85;7.90;;;;;;;8.80;100.00;101804.47;4928331;29;20062;-82
2023/03/20 00:02:38;;;;;;;24.90;8.73;;;;;;;8.92;100.00;101807.31;4922532;29;20402;-82
2023/03/20 00:05:20;;;;;;;22.13;10.73;;;;;;;8.56;100.00;101797.63;4910665;29;20034;-82
2023/03/20 00:07:46;;;;;;;20.55;8.90;;;;;;;8.88;100.00;101801.59;4910262;29;20518;-82
2023/03/20 00:10:12;;;;;;;24.38;9.32;;;;;;;8.88;100.00;101807.19;4912723;29;20085;-83
2023/03/20 00:12:38;;;;;;;24.52;10.25;;;;;;;8.59;100.00;101794.16;4913566;29;20039;-83
2023/03/20 00:15:06;;;;;;;27.48;10.40;;;;;;;8.67;100.00;101815.59;4928183;29;20031;-82
2023/03/20 00:17:32;;;;;;;30.10;13.85;;;;;;;8.42;100.00;101795.13;4922113;29;20036;-82
2023/03/20 00:19:57;;;;;;;39.08;16.73;;;;;;;8.39;100.00;101808.88;4904481;29;20174;-82
2023/03/20 00:22:23;;;;;;;39.22;14.43;;;;;;;8.63;100.00;101809.06;4907619;29;20053;-82
2023/03/20 00:24:48;;;;;;;35.25;13.48;;;;;;;8.57;100.00;101807.63;4923067;29;20031;-82
2023/03/20 00:27:15;;;;;;;35.42;13.68;;;;;;;8.56;100.00;101800.44;4908496;29;20045;-82
2023/03/20 00:29:41;;;;;;;44.72;17.65;;;;;;;8.51;100.00;101803.41;4927579;29;20498;-82
2023/03/20 00:32:13;;;;;;;38.42;18.05;;;;;;;8.38;100.00;101805.28;4910140;29;20066;-82
2023/03/20 00:34:39;;;;;;;41.55;18.10;;;;;;;8.59;100.00;101810.88;4902954;29;20038;-82
2023/03/20 00:37:05;;;;;;;37.72;16.08;;;;;;;8.65;100.00;101815.09;4906010;29;20040;-82
2023/03/20 00:39:31;;;;;;;36.67;15.02;;;;;;;8.37;100.00;101811.19;4921197;29;20031;-82
2023/03/20 00:42:00;;;;;;;49.53;19.02;;;;;;;8.47;100.00;101796.88;4906046;29;20169;-82
2023/03/20 00:44:32;;;;;;;41.80;18.40;;;;;;;8.32;100.00;101818.63;4925193;29;20036;-82
2023/03/20 00:47:11;;;;;;;47.73;19.23;;;;;;;8.43;100.00;101823.81;4906057;29;20066;-82
2023/03/20 00:49:37;;;;;;;39.25;16.63;;;;;;;8.65;100.00;101814.28;4921316;29;20051;-83
2023/03/20 00:52:03;;;;;;;44.53;17.23;;;;;;;8.14;100.00;101817.94;4908357;29;20035;-82
2023/03/20 00:54:29;;;;;;;35.80;17.25;;;;;;;8.49;100.00;101819.66;4921508;29;20094;-82
2023/03/20 00:57:13;;;;;;;50.63;19.73;;;;;;;8.59;100.00;101816.47;4905694;29;20036;-82
2023/03/20 00:59:45;;;;;;;42.10;19.27;;;;;;;8.16;100.00;101823.19;4907285;29;20059;-82
2023/03/20 01:02:11;;;;;;;50.47;17.77;;;;;;;8.18;100.00;101823.66;4922685;29;20039;-82
2023/03/20 01:04:40;;;;;;;41.08;17.25;;;;;;;8.49;100.00;101828.03;4905496;29;20051;-82
2023/03/20 01:07:06;;;;;;;35.97;15.52;;;;;;;8.44;100.00;101831.06;4900909;29;20038;-82
2023/03/20 01:09:32;;;;;;;33.15;15.45;;;;;;;8.45;100.00;101849.41;4907288;29;20034;-82
2023/03/20 01:11:59;;;;;;;34.05;14.77;;;;;;;8.40;100.00;101855.16;4903025;29;20494;-82
2023/03/20 01:14:25;;;;;;;40.78;13.77;;;;;;;8.55;100.00;101835.06;4917897;29;20031;-82
2023/03/20 01:16:50;;;;;;;30.23;13.07;;;;;;;8.41;100.00;101843.72;4899620;29;20445;-82
2023/03/20 01:19:16;;;;;;;30.90;12.85;;;;;;;8.33;100.00;101850.13;4905028;29;20389;-82
2023/03/20 01:21:41;;;;;;;22.35;11.18;;;;;;;8.29;100.00;101869.50;4923016;29;20034;-82
2023/03/20 01:24:07;;;;;;;22.40;11.30;;;;;;;8.31;100.00;101877.56;4926760;29;20035;-82
2023/03/20 01:26:35;;;;;;;26.08;10.82;;;;;;;8.31;100.00;101867.19;4919281;29;20035;-82
2023/03/20 01:29:01;;;;;;;25.95;11.02;;;;;;;8.33;100.00;101864.91;4926764;29;20473;-82
2023/03/20 01:31:26;;;;;;;22.58;10.10;;;;;;;8.29;100.00;101865.91;4926296;29;20023;-82
2023/03/20 01:33:52;;;;;;;26.75;11.68;;;;;;;8.06;100.00;101845.88;4909028;29;20089;-82
2023/03/20 01:36:21;;;;;;;22.95;10.63;;;;;;;8.37;100.00;101865.03;4923607;29;20108;-82
2023/03/20 01:38:57;;;;;;;28.88;12.32;;;;;;;8.41;100.00;101870.78;4917338;29;20035;-82
2023/03/20 01:41:25;;;;;;;26.38;10.43;;;;;;;8.48;100.00;101862.69;4905587;29;20019;-82
2023/03/20 01:43:51;;;;;;;18.48;9.98;;;;;;;8.50;100.00;101863.97;4927518;29;20036;-83
2023/03/20 01:46:20;;;;;;;23.58;9.15;;;;;;;8.18;100.00;101864.66;4911446;29;20035;-83
2023/03/20 01:48:48;;;;;;;23.00;9.43;;;;;;;8.39;100.00;101868.31;4923852;29;20071;-83
2023/03/20 01:51:14;;;;;;;22.60;9.77;;;;;;;8.37;100.00;101853.03;4921778;29;20061;-83
2023/03/20 01:53:40;;;;;;;24.13;9.27;;;;;;;8.40;100.00;101857.97;4918426;29;20035;-82
2023/03/20 01:56:06;;;;;;;23.40;10.55;;;;;;;8.47;100.00;101847.91;4901237;29;20039;-82
2023/03/20 01:58:37;;;;;;;22.05;7.68;;;;;;;8.17;100.00;101863.84;4918828;29;20054;-82
2023/03/20 02:01:05;;;;;;;21.00;8.85;;;;;;;8.31;100.00;101863.59;4910017;29;20027;-82
2023/03/20 02:03:31;;;;;;;22.73;9.52;;;;;;;8.37;100.00;101865.03;4905122;29;20047;-83
2023/03/20 02:05:58;;;;;;;19.30;8.77;;;;;;;8.31;100.00;101856.03;4907545;29;20483;-82
2023/03/20 02:08:29;;;;;;;21.25;8.25;;;;;;;8.32;100.00;101862.44;4923457;29;20067;-82
2023/03/20 02:10:57;;;;;;;20.83;8.63;;;;;;;8.27;100.00;101843.13;4919607;29;20027;-82
2023/03/20 02:13:25;;;;;;;20.25;8.57;;;;;;;8.38;100.00;101832.38;4906615;29;20438;-82
2023/03/20 02:16:11;;;;;;;16.38;7.78;;;;;;;8.40;100.00;101821.69;4920232;29;20031;-82
2023/03/20 02:18:38;;;;;;;19.92;8.27;;;;;;;8.28;100.00;101828.81;4900539;29;20039;-83
2023/03/20 02:21:20;;;;;;;24.27;8.68;;;;;;;8.14;100.00;101831.88;4904079;29;20032;-82
2023/03/20 02:24:17;;;;;;;18.30;7.63;;;;;;;8.05;100.00;101808.81;4918807;29;20115;-82
2023/03/20 02:27:06;;;;;;;21.50;8.98;;;;;;;8.32;100.00;101796.28;4921752;29;20114;-82
2023/03/20 02:30:10;;;;;;;19.40;8.50;;;;;;;8.34;100.00;101805.13;4919883;29;20126;-82
2023/03/20 02:32:57;;;;;;;22.50;7.70;;;;;;;8.56;100.00;101789.25;4901012;29;20508;-82
2023/03/20 02:35:39;;;;;;;15.38;7.70;;;;;;;8.62;100.00;101793.47;4919945;29;20035;-82
2023/03/20 02:38:46;;;;;;;21.53;8.13;;;;;;;8.54;100.00;101784.00;4900404;29;20038;-82
2023/03/20 02:41:45;;;;;;;22.17;8.00;;;;;;;8.56;100.00;101794.84;4887545;29;20051;-82
2023/03/20 02:44:40;;;;;;;18.65;8.02;;;;;;;8.39;100.00;101800.50;4907824;29;20588;-83
2023/03/20 02:47:34;;;;;;;22.50;7.25;;;;;;;8.11;100.00;101790.72;4904453;29;20046;-82
2023/03/20 02:50:17;;;;;;;16.63;7.65;;;;;;;8.55;100.00;101793.19;4910123;29;20044;-82
2023/03/20 02:53:14;;;;;;;16.55;7.18;;;;;;;8.58;100.00;101786.09;4924148;29;20027;-82
2023/03/20 02:56:05;;;;;;;20.08;8.32;;;;;;;8.62;100.00;101793.47;4908459;29;20032;-83
2023/03/20 02:58:44;;;;;;;14.65;8.02;;;;;;;8.51;100.00;101786.66;4926350;29;20040;-82
2023/03/20 03:01:10;;;;;;;16.05;7.85;;;;;;;8.43;100.00;101790.34;4922845;29;20090;-82
2023/03/20 03:03:46;;;;;;;16.63;8.10;;;;;;;8.39;100.00;101776.25;4922389;29;20727;-83
2023/03/20 03:06:36;;;;;;;28.15;8.45;;;;;;;8.39;100.00;101784.63;4906850;29;20394;-82
2023/03/20 03:09:17;;;;;;;28.30;10.02;;;;;;;8.27;100.00;101785.34;4908419;29;20410;-82
2023/03/20 03:11:49;;;;;;;20.83;10.07;;;;;;;8.09;100.00;101775.47;4923973;29;22958;-82
2023/03/20 03:14:28;;;;;;;21.38;9.27;;;;;;;8.13;100.00;101773.66;4922939;29;20036;-83
2023/03/20 03:16:55;;;;;;;27.02;10.30;;;;;;;8.34;100.00;101762.50;4918659;29;20035;-82
2023/03/20 03:19:25;;;;;;;17.73;8.65;;;;;;;8.38;100.00;101771.00;4909720;29;20481;-83
2023/03/20 03:21:50;;;;;;;23.98;11.10;;;;;;;8.29;100.00;101766.31;4908574;29;20040;-82
2023/03/20 03:24:28;;;;;;;20.80;8.93;;;;;;;8.27;100.00;101762.22;4908044;29;20103;-82
2023/03/20 03:26:58;;;;;;;22.15;9.60;;;;;;;8.34;100.00;101759.69;4908334;29;20106;-83
2023/03/20 03:29:26;;;;;;;17.60;8.00;;;;;;;8.42;100.00;101752.44;4906005;29;20060;-83
2023/03/20 03:31:53;;;;;;;22.13;9.93;;;;;;;8.13;100.00;101748.53;4909542;29;20157;-82
2023/03/20 03:34:21;;;;;;;22.85;10.43;;;;;;;8.35;100.00;101733.44;4921789;29;20035;-82
2023/03/20 03:36:59;;;;;;;24.48;10.75;;;;;;;8.35;100.00;101753.78;4926737;29;20062;-83
2023/03/20 03:39:54;;;;;;;29.23;12.13;;;;;;;8.26;100.00;101744.66;4919724;29;20028;-82
2023/03/20 03:42:29;;;;;;;25.27;12.02;;;;;;;8.42;100.00;101738.50;4923317;29;20478;-83
2023/03/20 03:45:08;;;;;;;20.35;10.38;;;;;;;8.19;100.00;101730.47;4920123;29;20589;-82
2023/03/20 03:47:42;;;;;;;21.10;10.35;;;;;;;8.19;100.00;101716.50;4921767;29;20051;-83
2023/03/20 03:50:13;;;;;;;24.27;9.98;;;;;;;8.10;100.00;101713.00;4905255;29;20577;-83
2023/03/20 03:52:40;;;;;;;23.58;9.95;;;;;;;8.12;100.00;101708.69;4913086;29;20391;-83
2023/03/20 03:55:14;;;;;;;27.63;11.85;;;;;;;8.04;100.00;101701.22;4931468;29;20374;-82
2023/03/20 03:57:44;;;;;;;25.70;11.13;;;;;;;8.08;100.00;101732.03;4905420;29;20167;-83
2023/03/20 04:00:13;;;;;;;21.23;9.38;;;;;;;8.15;100.00;101723.94;4911586;29;20028;-82
2023/03/20 04:02:40;;;;;;;25.73;9.93;;;;;;;7.97;100.00;101728.00;4926170;29;20050;-83
2023/03/20 04:05:06;;;;;;;20.77;9.43;;;;;;;7.99;100.00;101720.09;4928722;29;20417;-83
2023/03/20 04:07:31;;;;;;;23.65;10.45;;;;;;;8.01;100.00;101724.22;4923922;29;20359;-83
2023/03/20 04:09:57;;;;;;;18.48;9.02;;;;;;;8.05;100.00;101721.53;4908457;29;20039;-83
2023/03/20 04:12:33;;;;;;;24.15;11.50;;;;;;;7.93;100.00;101717.53;4925478;29;20103;-82
2023/03/20 04:14:58;;;;;;;22.02;10.82;;;;;;;8.07;100.00;101725.63;4920245;29;21766;-82
2023/03/20 04:17:24;;;;;;;22.00;11.18;;;;;;;8.03;100.00;101718.28;4904851;29;20486;-82
2023/03/20 04:19:49;;;;;;;20.20;10.18;;;;;;;8.01;100.00;101706.66;4919703;29;20035;-83
2023/03/20 04:22:15;;;;;;;23.95;11.77;;;;;;;7.88;100.00;101720.50;4923280;29;20024;-83
2023/03/20 04:24:40;;;;;;;23.15;10.90;;;;;;;7.90;100.00;101711.81;4928473;29;20050;-83
2023/03/20 04:27:06;;;;;;;20.67;10.13;;;;;;;7.97;100.00;101714.06;4908079;29;20024;-82
2023/03/20 04:29:31;;;;;;;22.83;10.13;;;;;;;7.91;100.00;101700.34;4910810;29;20198;-82
2023/03/20 04:31:56;;;;;;;26.25;11.35;;;;;;;7.88;100.00;101702.97;4909263;29;20451;-83
2023/03/20 04:34:22;;;;;;;29.00;11.45;;;;;;;7.94;100.00;101708.00;4921234;29;20493;-83
2023/03/20 04:36:47;;;;;;;21.83;9.95;;;;;;;8.04;100.00;101705.97;4920066;29;20039;-83
2023/03/20 04:39:13;;;;;;;22.80;11.55;;;;;;;7.94;100.00;101719.16;4902277;29;20054;-82
2023/03/20 04:41:39;;;;;;;22.55;10.80;;;;;;;7.96;100.00;101724.41;4922929;29;20076;-83
2023/03/20 04:44:05;;;;;;;29.38;11.80;;;;;;;7.75;100.00;101696.50;4912941;29;20083;-83
2023/03/20 04:46:30;;;;;;;18.13;10.02;;;;;;;7.91;100.00;101689.19;4932086;29;20035;-83
2023/03/20 04:48:55;;;;;;;21.88;11.07;;;;;;;7.75;100.00;101699.31;4909180;29;20088;-83
2023/03/20 04:51:21;;;;;;;22.33;10.23;;;;;;;7.88;100.00;101705.75;4919416;29;20106;-83
2023/03/20 04:53:46;;;;;;;16.83;9.02;;;;;;;7.93;100.00;101709.19;4905832;29;20393;-83
2023/03/20 04:56:12;;;;;;;23.50;11.15;;;;;;;7.84;100.00;101691.72;4922199;29;20445;-83
2023/03/20 04:58:37;;;;;;;20.75;10.35;;;;;;;7.79;100.00;101699.44;4922815;29;20067;-83
2023/03/20 05:01:03;;;;;;;22.13;9.23;;;;;;;7.71;100.00;101701.94;4906437;29;20031;-83
2023/03/20 05:03:28;;;;;;;24.30;10.15;;;;;;;7.86;100.00;101717.28;4905881;29;20040;-83
2023/03/20 05:05:54;;;;;;;22.88;9.75;;;;;;;7.83;100.00;101700.41;4904776;29;20071;-82
2023/03/20 05:08:19;;;;;;;21.88;9.57;;;;;;;7.96;100.00;101715.22;4922147;29;20118;-83
2023/03/20 05:10:44;;;;;;;23.98;9.63;;;;;;;7.62;100.00;101700.38;4905947;29;20027;-83
2023/03/20 05:13:10;;;;;;;21.30;9.70;;;;;;;7.86;100.00;101711.69;4917574;29;20069;-83
2023/03/20 05:15:36;;;;;;;23.23;9.82;;;;;;;7.78;100.00;101715.34;4909551;29;20122;-83
2023/03/20 05:18:02;;;;;;;21.58;9.32;;;;;;;7.83;100.00;101705.97;4906187;29;20063;-83
2023/03/20 05:20:27;;;;;;;20.80;9.85;;;;;;;7.62;100.00;101689.25;4924497;29;20062;-83
2023/03/20 05:22:52;;;;;;;20.95;9.88;;;;;;;7.89;100.00;101708.22;4911093;29;20036;-83
2023/03/20 05:25:18;;;;;;;23.45;8.88;;;;;;;7.90;100.00;101707.06;4910301;29;20037;-83
2023/03/20 05:27:45;;;;;;;20.30;9.48;;;;;;;7.86;100.00;101716.44;4905291;29;20058;-83
2023/03/20 05:30:11;;;;;;;21.25;10.32;;;;;;;7.74;100.00;101719.97;4922110;29;20038;-83
2023/03/20 05:32:37;;;;;;;19.95;10.90;;;;;;;7.70;100.00;101691.16;4923654;29;20042;-83
2023/03/20 05:35:03;;;;;;;14.70;8.32;;;;;;;7.73;100.00;101701.59;4904612;29;20115;-83
2023/03/20 05:37:29;;;;;;;28.23;11.27;;;;;;;7.88;100.00;101714.94;4923142;29;20642;-82
2023/03/20 05:39:54;;;;;;;24.45;10.38;;;;;;;7.83;100.00;101712.38;4907931;29;20730;-83
2023/03/20 05:42:20;;;;;;;27.40;11.68;;;;;;;7.53;100.00;101698.47;4917283;29;21361;-83
2023/03/20 05:44:45;;;;;;;28.23;12.63;;;;;;;7.73;100.00;101707.19;4906943;29;20019;-83
2023/03/20 05:47:13;;;;;;;29.13;13.13;;;;;;;7.56;100.00;101701.72;4917108;29;20448;-83
2023/03/20 05:49:39;;;;;;;34.67;13.30;;;;;;;7.57;100.00;101706.97;4917918;29;20514;-83
2023/03/20 05:52:05;;;;;;;29.95;12.48;;;;;;;7.69;100.00;101712.59;4919344;29;20035;-83
2023/03/20 05:54:30;;;;;;;26.05;11.77;;;;;;;7.74;100.00;101714.41;4901311;29;20526;-83
2023/03/20 05:56:56;;;;;;;25.05;12.07;;;;;;;7.75;100.00;101721.59;4910648;29;20039;-82
2023/03/20 05:59:21;;;;;;;29.05;14.15;;;;;;;7.66;100.00;101723.63;4925960;29;20505;-83
2023/03/20 06:01:46;;;;;;;23.33;11.88;;;;;;;7.46;100.00;101694.56;4910890;29;20032;-83
2023/03/20 06:04:12;;;;;;;26.95;11.95;;;;;;;7.68;100.00;101715.75;4924669;29;20118;-83
2023/03/20 06:06:37;;;;;;;29.55;13.00;;;;;;;7.62;100.00;101712.34;4911710;29;20094;-83
2023/03/20 06:09:03;;;;;;;23.02;12.23;;;;;;;7.65;100.00;101702.47;4919578;29;20053;-83
2023/03/20 06:11:29;;;;;;;35.80;12.68;;;;;;;7.57;100.00;101712.53;4921716;29;20568;-82
2023/03/20 06:13:54;;;;;;;26.45;13.27;;;;;;;7.64;100.00;101710.03;4911496;29;20031;-82
2023/03/20 06:16:20;;;;;;;28.23;11.93;;;;;;;7.68;100.00;101718.53;4902941;29;20027;-83
2023/03/20 06:18:45;;;;;;;29.27;12.98;;;;;;;7.52;100.00;101715.50;4917268;29;20031;-83
2023/03/20 06:21:11;;;;;;;27.90;12.25;;;;;;;7.71;100.00;101726.22;4915796;29;20112;-83
2023/03/20 06:23:37;;;;;;;30.60;12.15;;;;;;;7.63;100.00;101729.88;4918452;29;20134;-83
2023/03/20 06:26:03;;;;;;;29.00;15.23;;;;;;;7.65;100.00;101728.41;4920519;29;20038;-83
2023/03/20 06:28:29;;;;;;;32.35;13.23;;;;;;;7.64;100.00;101731.50;4907150;29;20028;-83
2023/03/20 06:30:54;;;;;;;34.17;12.27;;;;;;;7.64;100.00;101731.50;4912779;29;20836;-84
2023/03/20 06:33:20;;;;;;;28.15;12.60;;;;;;;7.80;100.00;101734.50;4924421;29;20456;-85
2023/03/20 06:35:47;;;;;;;30.30;12.93;;;;;;;7.76;100.00;101727.97;4900723;29;20051;-85
2023/03/20 06:38:12;;;;;;;33.10;13.68;;;;;;;7.52;100.00;101729.44;4902525;29;20035;-85
2023/03/20 06:40:38;;;;;;;33.13;13.57;;;;;;;7.74;100.00;101726.38;4897827;29;20055;-85
2023/03/20 06:43:03;;;;;;;26.27;12.27;;;;;;;7.72;100.00;101733.44;4894947;29;20446;-85
2023/03/20 06:45:29;;;;;;;25.33;13.30;;;;;;;7.72;100.00;101720.31;4901284;29;20042;-84
2023/03/20 06:47:55;;;;;;;27.42;11.88;;;;;;;7.70;100.00;101719.81;4914560;29;20051;-84
2023/03/20 06:50:22;;;;;;;28.75;13.13;;;;;;;7.74;100.00;101737.50;4901218;29;20039;-83
2023/03/20 06:52:47;;;;;;;34.50;13.23;;;;;;;7.62;100.00;101731.03;4927709;29;20654;-84
2023/03/20 06:55:12;;;;;;;28.80;14.18;;;;;;;7.81;100.00;101725.00;4899772;29;20122;-84
2023/03/20 06:57:38;;;;;;;28.30;12.15;;;;;;;7.65;100.00;101731.19;4927945;29;20048;-84
2023/03/20 07:00:05;;;;;;;30.15;13.13;;;;;;;7.84;100.00;101744.66;4911108;29;20038;-82
2023/03/20 07:02:31;;;;;;;32.25;13.32;;;;;;;7.91;100.00;101724.63;4905511;29;20020;-83
2023/03/20 07:04:56;;;;;;;31.98;14.13;;;;;;;8.43;100.00;101740.13;4899605;29;20032;-83
2023/03/20 07:07:22;;;;;;;28.95;12.90;;;;;;;8.53;100.00;101745.28;4917658;29;20038;-80
2023/03/20 07:09:47;;;;;;;31.27;13.40;;;;;;;8.70;100.00;101739.53;4919877;29;20043;-79
2023/03/20 07:12:14;;;;;;;33.88;14.85;;;;;;;8.13;100.00;101737.41;4912076;29;20498;-79
2023/03/20 07:14:41;;;;;;;31.23;13.82;;;;;;;7.84;100.00;101741.88;4909212;29;20046;-80
2023/03/20 07:17:08;;;;;;;33.17;14.50;;;;;;;7.86;100.00;101742.38;4913628;29;20043;-79
2023/03/20 07:19:35;;;;;;;27.55;12.10;;;;;;;7.84;100.00;101730.72;4898814;29;20038;-79
2023/03/20 07:22:03;;;;;;;36.70;14.88;;;;;;;7.92;100.00;101740.97;4922458;29;20450;-79
2023/03/20 07:24:28;;;;;;;29.90;15.98;;;;;;;7.85;100.00;101737.13;4920779;29;20383;-79
2023/03/20 07:26:54;;;;;;;32.92;15.27;;;;;;;7.97;100.00;101742.78;4921191;29;20030;-80
2023/03/20 07:29:19;;;;;;;29.55;13.45;;;;;;;7.94;100.00;101746.22;4922922;29;20044;-79
2023/03/20 07:31:45;;;;;;;28.52;13.65;;;;;;;7.90;100.00;101750.84;4929630;29;20076;-78
2023/03/20 07:34:11;;;;;;;30.85;15.95;;;;;;;7.81;100.00;101741.72;4898582;29;20030;-79
2023/03/20 07:36:36;;;;;;;23.63;14.18;;;;;;;7.92;100.00;101754.13;4926216;29;20034;-79
2023/03/20 07:39:02;;;;;;;38.17;15.02;;;;;;;8.05;100.00;101746.63;4933452;29;20035;-79
2023/03/20 07:41:27;;;;;;;29.17;12.98;;;;;;;8.05;100.00;101743.84;4931782;29;20106;-79
2023/03/20 07:43:52;;;;;;;30.30;13.63;;;;;;;8.09;100.00;101747.59;4913502;29;20046;-79
2023/03/20 07:46:18;;;;;;;34.95;14.27;;;;;;;8.06;100.00;101753.88;4929489;29;20031;-79
2023/03/20 07:48:43;;;;;;;29.27;14.13;;;;;;;8.02;100.00;101752.91;4927387;29;20126;-79
2023/03/20 07:51:09;;;;;;;26.60;13.27;;;;;;;8.04;100.00;101743.03;4930316;29;20027;-79
2023/03/20 07:53:34;;;;;;;29.92;13.88;;;;;;;8.10;100.00;101749.25;4934190;29;20091;-79
2023/03/20 07:56:00;;;;;;;30.10;14.48;;;;;;;8.08;100.00;101744.00;4916905;29;20477;-79
2023/03/20 07:58:25;;;;;;;29.08;13.32;;;;;;;8.15;100.00;101749.03;4926913;29;20090;-79
2023/03/20 08:00:51;;;;;;;27.83;12.95;;;;;;;8.07;100.00;101750.72;4931230;29;20039;-79
2023/03/20 08:03:16;;;;;;;29.20;13.93;;;;;;;8.22;100.00;101752.09;4935226;29;20111;-79
2023/03/20 08:05:42;;;;;;;23.95;13.40;;;;;;;8.14;100.00;101737.06;4923897;29;20032;-79
2023/03/20 08:08:08;;;;;;;28.85;15.82;;;;;;;8.36;100.00;101754.59;4919268;29;20032;-79
2023/03/20 08:10:33;;;;;;;25.75;12.95;;;;;;;8.32;100.00;101745.28;4926886;29;20438;-79
2023/03/20 08:12:58;;;;;;;27.75;14.18;;;;;;;8.32;100.00;101746.09;4909488;29;20509;-79
2023/03/20 08:15:24;;;;;;;26.35;13.27;;;;;;;8.38;100.00;101755.06;4928376;29;20091;-79
2023/03/20 08:17:49;;;;;;;30.52;12.20;;;;;;;8.38;100.00;101749.50;4908431;29;20035;-79
2023/03/20 08:20:16;;;;;;;36.00;15.30;;;;;;;8.40;100.00;101740.78;4925680;29;20030;-79
2023/03/20 08:22:43;;;;;;;30.83;14.93;;;;;;;8.52;100.00;101752.84;4910250;29;20055;-79
2023/03/20 08:25:09;;;;;;;24.65;12.75;;;;;;;8.58;100.00;101759.03;4926695;29;20035;-79
2023/03/20 08:27:35;;;;;;;22.08;12.90;;;;;;;8.49;100.00;101749.91;4922145;29;20039;-78
2023/03/20 08:30:01;;;;;;;27.50;14.30;;;;;;;8.58;100.00;101759.03;4910757;29;20110;-79
2023/03/20 08:32:26;;;;;;;27.70;13.98;;;;;;;8.63;100.00;101758.81;4927491;29;20485;-78
2023/03/20 08:34:55;;;;;;;23.92;13.18;;;;;;;8.62;100.00;101765.56;4928952;29;20061;-79
2023/03/20 08:37:21;;;;;;;31.67;13.45;;;;;;;8.50;100.00;101768.31;4928291;29;20067;-78
2023/03/20 08:39:46;;;;;;;27.48;12.35;;;;;;;8.68;100.00;101769.75;4927141;29;20057;-79
2023/03/20 08:42:12;;;;;;;28.80;12.82;;;;;;;8.68;100.00;101764.16;4924549;29;20031;-78
2023/03/20 08:44:38;;;;;;;29.38;11.95;;;;;;;8.73;100.00;101763.16;4910883;29;21305;-79
2023/03/20 08:47:06;;;;;;;24.58;11.45;;;;;;;8.68;100.00;101755.78;4930954;29;20079;-78
2023/03/20 08:49:31;;;;;;;29.27;12.00;;;;;;;8.71;100.00;101759.91;4930305;29;20103;-79
2023/03/20 08:51:57;;;;;;;28.75;12.00;;;;;;;8.63;100.00;101749.63;4929541;29;20055;-79
2023/03/20 08:54:22;;;;;;;21.90;12.02;;;;;;;8.78;100.00;101760.16;4927004;29;20468;-79
2023/03/20 08:56:47;;;;;;;26.95;11.45;;;;;;;8.80;100.00;101757.00;4907740;29;20035;-78
2023/03/20 08:59:13;;;;;;;21.23;12.32;;;;;;;8.71;100.00;101755.13;4915555;29;20042;-78
2023/03/20 09:01:38;;;;;;;23.75;12.95;;;;;;;8.75;100.00;101753.28;4923483;29;20031;-78
2023/03/20 09:04:04;;;;;;;27.80;12.18;;;;;;;8.80;100.00;101749.44;4909610;29;20525;-78
2023/03/20 09:06:29;;;;;;;23.88;11.32;;;;;;;8.82;100.00;101749.13;4911441;29;20097;-78
2023/03/20 09:08:58;;;;;;;30.88;11.85;;;;;;;8.87;100.00;101760.06;4924047;29;20046;-79
2023/03/20 09:11:23;;;;;;;21.98;10.73;;;;;;;8.90;100.00;101754.59;4912669;29;20118;-79
2023/03/20 09:13:48;;;;;;;27.52;11.25;;;;;;;9.03;100.00;101746.25;4912527;29;20580;-79
2023/03/20 09:16:14;;;;;;;23.80;10.55;;;;;;;9.10;100.00;101752.06;4904850;29;20110;-79
2023/03/20 09:18:39;;;;;;;30.23;10.98;;;;;;;9.12;100.00;101756.16;4903004;29;20040;-78
2023/03/20 09:21:05;;;;;;;26.65;11.63;;;;;;;9.08;100.00;101746.81;4921451;29;20455;-78
2023/03/20 09:23:30;;;;;;;26.00;10.63;;;;;;;9.10;100.00;101744.50;4927537;29;20031;-78
2023/03/20 09:25:56;;;;;;;22.35;9.82;;;;;;;9.21;100.00;101744.06;4907121;29;20512;-78
2023/03/20 09:28:23;;;;;;;22.75;10.73;;;;;;;9.21;100.00;101752.44;4922978;29;20051;-79
2023/03/20 09:30:48;;;;;;;21.27;9.07;;;;;;;9.24;100.00;101751.75;4918417;29;20454;-78
2023/03/20 09:33:14;;;;;;;19.50;10.88;;;;;;;9.05;100.00;101744.75;4926117;29;20036;-78
2023/03/20 09:35:40;;;;;;;22.73;9.38;;;;;;;9.08;100.00;101738.44;4923088;29;20039;-79
2023/03/20 09:38:06;;;;;;;22.58;9.38;;;;;;;9.00;100.00;101746.94;4921967;29;20134;-79
2023/03/20 09:41:09;;;;;;;21.25;8.85;;;;;;;9.03;100.00;101741.47;4925485;29;20085;-78
2023/03/20 09:43:40;;;;;;;21.20;9.05;;;;;;;9.22;100.00;101749.31;4893131;29;20058;-78
2023/03/20 09:46:18;;;;;;;18.83;9.80;;;;;;;9.10;100.00;101752.88;4923561;29;20035;-78
2023/03/20 09:48:56;;;;;;;18.98;8.50;;;;;;;9.15;100.00;101755.47;4927244;29;20162;-79
2023/03/20 09:51:40;;;;;;;19.67;9.25;;;;;;;9.21;100.00;101752.44;4921386;29;20028;-78
2023/03/20 09:54:35;;;;;;;16.08;8.40;;;;;;;9.17;100.00;101755.13;4924668;29;20054;-78
2023/03/20 09:57:01;;;;;;;24.30;9.60;;;;;;;9.08;100.00;101755.19;4907353;29;20047;-78
2023/03/20 09:59:29;;;;;;;21.90;9.82;;;;;;;9.08;100.00;101754.41;4929479;29;20043;-78
2023/03/20 10:01:59;;;;;;;15.23;8.77;;;;;;;9.13;100.00;101740.22;4905366;29;20043;-79
2023/03/20 10:04:28;;;;;;;25.50;11.45;;;;;;;9.10;100.00;101758.47;4923559;29;20028;-78
2023/03/20 10:06:54;;;;;;;21.42;10.18;;;;;;;9.01;100.00;101754.97;4921666;29;20043;-78
2023/03/20 10:09:25;;;;;;;18.45;9.68;;;;;;;9.05;100.00;101750.31;4923550;29;20039;-78
2023/03/20 10:12:22;;;;;;;21.30;9.70;;;;;;;9.00;100.00;101747.75;4928165;29;20028;-78
2023/03/20 10:15:16;;;;;;;26.80;9.93;;;;;;;9.00;100.00;101736.56;4927455;29;20039;-78
2023/03/20 10:18:01;;;;;;;19.48;9.68;;;;;;;9.08;100.00;101737.63;4908779;29;20040;-77
2023/03/20 10:20:34;;;;;;;22.52;10.48;;;;;;;9.18;100.00;101739.97;4930333;29;20031;-77
2023/03/20 10:23:21;;;;;;;24.35;8.80;;;;;;;9.27;100.00;101734.28;4905118;29;20063;-77
2023/03/20 10:25:59;;;;;;;22.77;10.15;;;;;;;9.50;100.00;101743.84;4908000;29;20038;-77
2023/03/20 10:28:38;;;;;;;19.45;8.57;;;;;;;9.37;100.00;101739.41;4929048;29;20024;-78
2023/03/20 10:31:12;;;;;;;18.10;8.88;;;;;;;9.50;100.00;101731.84;4925276;29;20106;-78
2023/03/20 10:33:49;;;;;;;17.98;8.15;;;;;;;9.39;100.00;101748.28;4911392;29;20557;-78
2023/03/20 10:36:14;;;;;;;14.13;8.27;;;;;;;9.39;100.00;101717.53;4927639;29;20036;-77
2023/03/20 10:38:54;;;;;;;14.20;7.63;;;;;;;9.35;100.00;101739.75;4914286;29;20540;-77
2023/03/20 10:41:25;;;;;;;21.73;7.43;;;;;;;9.34;100.00;101740.13;4927069;29;20070;-77
2023/03/20 10:43:52;;;;;;;16.48;7.60;;;;;;;9.45;100.00;101738.50;4901021;29;20607;-77
2023/03/20 10:46:41;;;;;;;18.20;8.55;;;;;;;9.40;100.00;101744.28;4920934;29;20043;-77
2023/03/20 10:49:14;;;;;;;14.73;6.78;;;;;;;9.50;100.00;101737.44;4904969;29;20036;-77
2023/03/20 10:51:45;;;;;;;14.13;6.72;;;;;;;9.44;100.00;101738.84;4905787;29;20034;-77
2023/03/20 10:54:30;;;;;;;16.63;7.35;;;;;;;9.52;100.00;101741.50;4911329;29;20413;-77
2023/03/20 10:56:58;;;;;;;15.43;7.10;;;;;;;9.56;100.00;101744.44;4907481;29;20032;-77
2023/03/20 10:59:27;;;;;;;12.60;6.65;;;;;;;9.60;100.00;101736.16;4920197;29;20131;-78
2023/03/20 11:01:53;;;;;;;12.80;6.35;;;;;;;9.42;100.00;101732.78;4926070;29;20123;-77
2023/03/20 11:04:19;;;;;;;14.02;5.60;;;;;;;9.51;100.00;101728.72;4912208;29;20039;-77
2023/03/20 11:06:48;;;;;;;13.50;6.20;;;;;;;9.46;100.00;101742.09;4911290;29;20036;-77
2023/03/20 11:09:22;;;;;;;15.40;5.85;;;;;;;9.53;100.00;101743.16;4925811;29;20047;-77
2023/03/20 11:11:51;;;;;;;11.73;5.18;;;;;;;9.45;100.00;101741.28;4911274;29;20451;-77
2023/03/20 11:14:22;;;;;;;17.20;6.70;;;;;;;9.38;100.00;101745.81;4924740;29;20035;-78
2023/03/20 11:16:51;;;;;;;12.30;4.88;;;;;;;9.42;100.00;101728.00;4926944;29;20114;-77
2023/03/20 11:19:18;;;;;;;12.43;5.05;;;;;;;9.44;100.00;101736.84;4928793;29;20031;-77
2023/03/20 11:21:47;;;;;;;12.48;5.28;;;;;;;9.56;100.00;101744.44;4912943;29;20028;-77